This is the latest recevied weather packets stored in our database for station/object DO1BDB-12. If no packets are shown the sender has not sent any weather packets the latest 10 day(s).
| Time | Temp. | Humidity | Pressure | Rain* | Wind** | Luminosity | Snow |
|---|---|---|---|---|---|---|---|
| 1778249639 | 14.44° C | 50% | 102.1 hPa | - | - | - | - |
| 1778249573 | 15° C | 50% | 102.1 hPa | - | - | - | - |
| 1778249507 | 15.56° C | 48% | 102.1 hPa | - | - | - | - |
| 1778249441 | 15.56° C | 48% | 102.1 hPa | - | - | - | - |
| 1778249375 | 15.56° C | 47% | 102.1 hPa | - | - | - | - |
| 1778249309 | 16.11° C | 48% | 102.1 hPa | - | - | - | - |
| 1778249244 | 16.67° C | 47% | 102.1 hPa | - | - | - | - |
| 1778249178 | 16.11° C | 47% | 102.1 hPa | - | - | - | - |
| 1778249112 | 16.11° C | 46% | 102.1 hPa | - | - | - | - |
| 1778249046 | 16.67° C | 46% | 102.1 hPa | - | - | - | - |
| 1778248980 | 16.11° C | 47% | 102.1 hPa | - | - | - | - |
| 1778248914 | 15° C | 48% | 102.1 hPa | - | - | - | - |
| 1778248849 | 15.56° C | 47% | 102.1 hPa | - | - | - | - |
| 1778248783 | 16.67° C | 44% | 102.1 hPa | - | - | - | - |
| 1778248717 | 17.22° C | 43% | 102.1 hPa | - | - | - | - |
| 1778248651 | 17.78° C | 43% | 102.1 hPa | - | - | - | - |
| 1778248585 | 17.22° C | 42% | 102.1 hPa | - | - | - | - |
| 1778248519 | 17.78° C | 42% | 102.1 hPa | - | - | - | - |
| 1778248454 | 16.67° C | 44% | 102.1 hPa | - | - | - | - |
| 1778248388 | 16.67° C | 44% | 102.1 hPa | - | - | - | - |
| 1778248256 | 15.56° C | 45% | 102.1 hPa | - | - | - | - |
| 1778248190 | 16.67° C | 45% | 102.1 hPa | - | - | - | - |
| 1778248124 | 16.11° C | 45% | 102.1 hPa | - | - | - | - |
| 1778248059 | 16.67° C | 44% | 102.1 hPa | - | - | - | - |
| 1778247993 | 16.11° C | 44% | 102.1 hPa | - | - | - | - |
* Rain since midnight (hover to see other rain measurements)
** Current wind speed in m/s (hover to see current wind gust speed)